createdAt,value
2018-03-27T00:00:08.956Z,35.53
2018-03-27T00:01:08.944Z,35.52
2018-03-27T00:02:09.043Z,35.59
2018-03-27T00:03:08.941Z,35.59
2018-03-27T00:04:08.943Z,35.5
2018-03-27T00:05:08.996Z,35.53
2018-03-27T00:06:08.942Z,35.46
2018-03-27T00:07:09.016Z,35.46
2018-03-27T00:08:08.987Z,35.58
2018-03-27T00:09:08.946Z,35.6
2018-03-27T00:10:08.939Z,35.49
2018-03-27T00:11:09.023Z,35.62
2018-03-27T00:12:08.945Z,35.48
2018-03-27T00:13:08.945Z,35.6
2018-03-27T00:14:08.987Z,35.55
2018-03-27T00:15:08.922Z,35.57
2018-03-27T00:16:08.946Z,35.55
2018-03-27T00:17:12.625Z,35.56
2018-03-27T00:18:09.099Z,35.5
2018-03-27T00:19:09.038Z,35.54
2018-03-27T00:20:09.037Z,35.67
2018-03-27T00:21:09.043Z,35.62
2018-03-27T00:22:09.040Z,35.53
2018-03-27T00:23:09.028Z,35.6
2018-03-27T00:24:09.028Z,35.52
2018-03-27T00:25:09.035Z,35.58
2018-03-27T00:26:09.025Z,35.64
2018-03-27T00:27:09.025Z,35.52
2018-03-27T00:28:09.021Z,35.68
2018-03-27T00:29:09.014Z,35.54
2018-03-27T00:30:09.020Z,35.64
2018-03-27T00:31:09.029Z,35.49
2018-03-27T00:32:09.088Z,35.64
2018-03-27T00:33:09.019Z,35.54
2018-03-27T00:34:09.027Z,35.56
2018-03-27T00:35:09.000Z,35.58
2018-03-27T00:36:08.999Z,35.56
2018-03-27T00:37:09.036Z,35.64
2018-03-27T00:38:09.031Z,35.61
2018-03-27T00:39:09.003Z,35.57
2018-03-27T00:40:09.002Z,35.58
2018-03-27T00:41:09.070Z,35.52
2018-03-27T00:42:09.010Z,35.61
2018-03-27T00:43:08.983Z,35.51
2018-03-27T00:44:09.005Z,35.49
2018-03-27T00:45:09.021Z,35.54
2018-03-27T00:46:09.000Z,35.6
2018-03-27T00:47:09.014Z,35.52
2018-03-27T00:48:09.016Z,35.57
2018-03-27T00:49:09.015Z,35.56
2018-03-27T00:50:09.015Z,35.67
2018-03-27T00:51:09.025Z,35.57
2018-03-27T00:52:09.026Z,35.61
2018-03-27T00:53:09.002Z,35.57
2018-03-27T00:54:09.021Z,35.53
2018-03-27T00:55:09.005Z,35.56
2018-03-27T00:56:09.018Z,35.64
2018-03-27T00:57:08.996Z,35.54
2018-03-27T00:58:09.024Z,35.62
2018-03-27T00:59:08.999Z,35.62
2018-03-27T01:00:09.027Z,35.56
2018-03-27T01:01:09.006Z,35.48
2018-03-27T01:02:09.025Z,35.55
2018-03-27T01:03:09.052Z,35.59
2018-03-27T01:04:09.001Z,35.53
2018-03-27T01:05:09.009Z,35.53
2018-03-27T01:06:08.982Z,35.56
2018-03-27T01:07:09.005Z,35.63
2018-03-27T01:08:09.065Z,35.63
2018-03-27T01:09:09.024Z,35.53
2018-03-27T01:10:09.009Z,35.57
2018-03-27T01:11:09.015Z,35.62
2018-03-27T01:12:08.999Z,35.52
2018-03-27T01:13:09.008Z,35.61
2018-03-27T01:14:09.003Z,35.6
2018-03-27T01:15:09.020Z,35.48
2018-03-27T01:16:08.991Z,35.47
2018-03-27T01:17:09.108Z,35.41
2018-03-27T01:18:09.112Z,35.49
2018-03-27T01:19:08.997Z,35.57
2018-03-27T01:20:09.004Z,35.48
2018-03-27T01:21:08.993Z,35.52
2018-03-27T01:22:09.003Z,35.47
2018-03-27T01:23:09.007Z,35.47
2018-03-27T01:24:09.027Z,35.53
2018-03-27T01:25:09.010Z,35.46
2018-03-27T01:26:09.046Z,35.59
2018-03-27T01:27:09.031Z,35.55
2018-03-27T01:28:09.019Z,35.42
2018-03-27T01:29:09.009Z,35.46
2018-03-27T01:30:08.992Z,35.54
2018-03-27T01:31:08.995Z,35.41
2018-03-27T01:32:09.001Z,35.39
2018-03-27T01:33:08.990Z,35.56
2018-03-27T01:34:08.994Z,35.58
2018-03-27T01:35:09.001Z,35.57
2018-03-27T01:36:08.992Z,35.53
2018-03-27T01:37:08.994Z,35.56
2018-03-27T01:38:08.994Z,35.55
2018-03-27T01:39:09.016Z,35.51
2018-03-27T01:40:08.998Z,35.61
2018-03-27T01:41:08.998Z,35.54
2018-03-27T01:42:09.001Z,35.52
2018-03-27T01:43:09.007Z,35.56
2018-03-27T01:44:08.997Z,35.49
2018-03-27T01:45:08.997Z,35.54
2018-03-27T01:46:08.979Z,35.54
2018-03-27T01:47:08.995Z,35.56
2018-03-27T01:48:09.012Z,35.48
2018-03-27T01:49:09.008Z,35.46
2018-03-27T01:50:09.009Z,35.45
2018-03-27T01:51:08.982Z,35.51
2018-03-27T01:52:08.985Z,35.48
2018-03-27T01:53:08.993Z,35.44
2018-03-27T01:54:08.992Z,35.49
2018-03-27T01:55:08.818Z,35.5
2018-03-27T01:56:08.998Z,35.59
2018-03-27T01:57:08.979Z,35.32
2018-03-27T01:58:08.980Z,35.46
2018-03-27T01:59:09.019Z,35.51
2018-03-27T02:00:08.975Z,35.5
2018-03-27T02:01:09.001Z,35.47
2018-03-27T02:02:08.994Z,35.3
2018-03-27T02:03:09.003Z,35.6
2018-03-27T02:04:09.065Z,35.4
2018-03-27T02:05:09.044Z,35.49
2018-03-27T02:06:08.991Z,35.5
2018-03-27T02:07:08.986Z,35.53
2018-03-27T02:08:08.975Z,35.47
2018-03-27T02:09:09.066Z,35.45
2018-03-27T02:10:08.989Z,35.52
2018-03-27T02:11:08.983Z,35.49
2018-03-27T02:12:09.009Z,35.43
2018-03-27T02:13:08.992Z,35.5
2018-03-27T02:14:08.982Z,35.53
2018-03-27T02:15:08.984Z,35.41
2018-03-27T02:16:08.984Z,35.55
2018-03-27T02:17:08.986Z,35.53
2018-03-27T02:18:08.989Z,35.41
2018-03-27T02:19:09.001Z,35.48
2018-03-27T02:20:08.995Z,35.49
2018-03-27T02:21:08.986Z,35.51
2018-03-27T02:22:08.971Z,35.46
2018-03-27T02:23:08.986Z,35.54
2018-03-27T02:24:08.987Z,35.62
2018-03-27T02:25:08.987Z,35.5
2018-03-27T02:26:08.985Z,35.54
2018-03-27T02:27:08.975Z,35.51
2018-03-27T02:28:08.978Z,35.53
2018-03-27T02:29:09.011Z,35.51
2018-03-27T02:30:08.996Z,35.44
2018-03-27T02:31:08.992Z,35.61
2018-03-27T02:32:08.988Z,35.6
2018-03-27T02:33:08.971Z,35.35
2018-03-27T02:34:08.991Z,35.43
2018-03-27T02:35:09.000Z,35.56
2018-03-27T02:36:09.071Z,35.58
2018-03-27T02:37:09.015Z,35.52
2018-03-27T02:38:08.980Z,35.43
2018-03-27T02:39:08.988Z,35.64
2018-03-27T02:40:09.016Z,35.53
2018-03-27T02:41:08.984Z,35.54
2018-03-27T02:42:08.966Z,35.5
2018-03-27T02:43:08.966Z,35.54
2018-03-27T02:44:08.978Z,35.5
2018-03-27T02:45:09.004Z,35.54
2018-03-27T02:46:08.979Z,35.5
2018-03-27T02:47:08.989Z,35.48
2018-03-27T02:48:09.002Z,35.54
2018-03-27T02:49:08.983Z,35.46
2018-03-27T02:50:09.005Z,35.49
2018-03-27T02:51:08.975Z,35.48
2018-03-27T02:52:08.968Z,35.48
2018-03-27T02:53:08.969Z,35.45
2018-03-27T02:54:08.966Z,35.47
2018-03-27T02:55:08.976Z,35.52
2018-03-27T02:56:08.967Z,35.57
2018-03-27T02:57:08.964Z,35.53
2018-03-27T02:58:08.962Z,35.57
2018-03-27T02:59:08.977Z,35.65
2018-03-27T03:00:09.015Z,35.5
2018-03-27T03:01:08.963Z,35.6
2018-03-27T03:02:08.994Z,35.6
2018-03-27T03:03:08.978Z,35.48
2018-03-27T03:04:08.960Z,35.5
2018-03-27T03:05:09.003Z,35.61
2018-03-27T03:06:08.970Z,35.49
2018-03-27T03:07:08.963Z,35.6
2018-03-27T03:08:08.946Z,35.73
2018-03-27T03:09:08.993Z,35.61
2018-03-27T03:10:09.038Z,35.61
2018-03-27T03:11:08.963Z,35.58
2018-03-27T03:12:08.960Z,35.56
2018-03-27T03:13:08.950Z,35.54
2018-03-27T03:14:08.962Z,35.57
2018-03-27T03:15:08.948Z,35.53
2018-03-27T03:16:08.952Z,35.48
2018-03-27T03:17:08.964Z,35.58
2018-03-27T03:18:09.065Z,35.6
2018-03-27T03:19:09.132Z,35.58
2018-03-27T03:20:08.987Z,35.54
2018-03-27T03:21:08.959Z,35.55
2018-03-27T03:22:09.085Z,35.51
2018-03-27T03:23:08.948Z,35.47
2018-03-27T03:24:08.952Z,35.57
2018-03-27T03:25:09.229Z,35.53
2018-03-27T03:26:08.965Z,35.6
2018-03-27T03:27:08.978Z,35.55
2018-03-27T03:28:08.966Z,35.58
2018-03-27T03:29:08.960Z,35.63
2018-03-27T03:30:09.238Z,35.61
2018-03-27T03:31:08.962Z,35.57
2018-03-27T03:32:08.947Z,35.53
2018-03-27T03:33:08.958Z,35.5
2018-03-27T03:34:08.944Z,35.6
2018-03-27T03:35:08.991Z,35.56
2018-03-27T03:36:08.964Z,35.6
2018-03-27T03:37:08.954Z,35.57
2018-03-27T03:38:08.968Z,35.62
2018-03-27T03:39:08.961Z,35.64
2018-03-27T03:40:08.949Z,35.52
2018-03-27T03:41:08.998Z,35.56
2018-03-27T03:42:08.959Z,35.46
2018-03-27T03:43:08.939Z,35.59
2018-03-27T03:44:08.958Z,35.56
2018-03-27T03:45:08.982Z,35.46
2018-03-27T03:46:08.970Z,35.43
2018-03-27T03:47:08.949Z,35.55
2018-03-27T03:48:08.940Z,35.49
2018-03-27T03:49:08.952Z,35.58
2018-03-27T03:50:08.950Z,35.53
2018-03-27T03:51:08.958Z,35.6
2018-03-27T03:52:08.955Z,35.59
2018-03-27T03:53:09.062Z,35.59
2018-03-27T03:54:08.953Z,35.55
2018-03-27T03:55:08.968Z,35.56
2018-03-27T03:56:08.949Z,35.67
2018-03-27T03:57:08.943Z,35.56
2018-03-27T03:58:08.947Z,35.55
2018-03-27T03:59:08.946Z,35.49
2018-03-27T04:00:08.964Z,35.63
2018-03-27T04:01:08.950Z,35.45
2018-03-27T04:02:08.959Z,35.52
2018-03-27T04:03:08.947Z,35.54
2018-03-27T04:04:08.933Z,35.44
2018-03-27T04:05:08.968Z,35.44
2018-03-27T04:06:08.938Z,35.5
2018-03-27T04:07:08.939Z,35.42
2018-03-27T04:08:08.942Z,35.4
2018-03-27T04:09:08.978Z,35.42
2018-03-27T04:10:08.964Z,35.38
2018-03-27T04:11:09.011Z,35.34
2018-03-27T04:12:08.935Z,35.37
2018-03-27T04:13:08.948Z,35.42
2018-03-27T04:14:08.963Z,35.5
2018-03-27T04:15:08.987Z,35.44
2018-03-27T04:16:08.952Z,35.29
2018-03-27T04:17:08.933Z,35.24
2018-03-27T04:18:08.941Z,35.36
2018-03-27T04:19:08.933Z,35.29
2018-03-27T04:20:08.957Z,35.32
2018-03-27T04:21:08.964Z,35.1
2018-03-27T04:22:08.948Z,35.22
2018-03-27T04:23:08.969Z,35.34
2018-03-27T04:24:08.945Z,35.37
2018-03-27T04:25:08.963Z,35.16
2018-03-27T04:26:09.067Z,35.35
2018-03-27T04:27:08.946Z,35.25
2018-03-27T04:28:08.946Z,35.15
2018-03-27T04:29:08.941Z,35.27
2018-03-27T04:30:08.984Z,35.22
2018-03-27T04:31:08.990Z,35.19
2018-03-27T04:32:08.954Z,35.25
2018-03-27T04:33:08.950Z,35.15
2018-03-27T04:34:08.938Z,35.17
2018-03-27T04:35:08.947Z,35.27
2018-03-27T04:36:08.930Z,35.23
2018-03-27T04:37:08.917Z,35.24
2018-03-27T04:38:08.931Z,35.3
2018-03-27T04:39:08.925Z,35.13
2018-03-27T04:40:08.940Z,35.16
2018-03-27T04:41:08.939Z,35.24
2018-03-27T04:42:08.987Z,35.2
2018-03-27T04:43:08.883Z,35.14
2018-03-27T04:44:08.936Z,35.29
2018-03-27T04:45:08.937Z,35.23
2018-03-27T04:46:08.926Z,35.18
2018-03-27T04:47:08.935Z,35.25
2018-03-27T04:48:08.952Z,35.21
2018-03-27T04:49:08.924Z,35.23
2018-03-27T04:50:08.960Z,35.26
2018-03-27T04:51:08.930Z,35.25
2018-03-27T04:52:08.980Z,35.17
2018-03-27T04:53:08.935Z,35.29
2018-03-27T04:54:08.929Z,35.25
2018-03-27T04:55:08.966Z,35.21
2018-03-27T04:56:08.917Z,35.25
2018-03-27T04:57:08.920Z,35.16
2018-03-27T04:58:08.926Z,35.24
2018-03-27T04:59:08.928Z,35.23
2018-03-27T05:00:08.931Z,35.23
2018-03-27T05:01:08.939Z,35.22
2018-03-27T05:02:08.945Z,35.2
2018-03-27T05:03:08.933Z,35.26
2018-03-27T05:04:08.948Z,35.12
2018-03-27T05:05:08.933Z,35.21
2018-03-27T05:06:08.937Z,35.2
2018-03-27T05:07:08.986Z,35.15
2018-03-27T05:08:08.934Z,35.21
2018-03-27T05:09:08.927Z,35.26
2018-03-27T05:10:08.933Z,35.13
2018-03-27T05:11:08.950Z,35.17
2018-03-27T05:12:08.925Z,35.21
2018-03-27T05:13:09.147Z,35.18
2018-03-27T05:14:08.925Z,35.16
2018-03-27T05:15:08.957Z,35.1
2018-03-27T05:16:08.938Z,35.16
2018-03-27T05:17:08.954Z,35.19
2018-03-27T05:18:08.931Z,35.15
2018-03-27T05:19:09.042Z,35.13
2018-03-27T05:20:09.014Z,35.15
2018-03-27T05:21:08.953Z,35.11
2018-03-27T05:22:08.931Z,35.13
2018-03-27T05:23:08.942Z,35.17
2018-03-27T05:24:08.981Z,35.17
2018-03-27T05:25:08.910Z,35.16
2018-03-27T05:26:08.955Z,35.13
2018-03-27T05:27:08.931Z,35.13
2018-03-27T05:28:08.947Z,35.11
2018-03-27T05:29:08.943Z,35.16
2018-03-27T05:30:08.922Z,35.12
2018-03-27T05:31:08.977Z,35.12
2018-03-27T05:32:08.937Z,35.12
2018-03-27T05:33:08.932Z,35.14
2018-03-27T05:34:08.922Z,35.06
2018-03-27T05:35:08.934Z,35.09
2018-03-27T05:36:08.916Z,35.09
2018-03-27T05:37:08.931Z,35.14
2018-03-27T05:38:08.930Z,35.17
2018-03-27T05:39:08.941Z,35.27
2018-03-27T05:40:08.950Z,35.63
2018-03-27T05:41:08.926Z,35.32
2018-03-27T05:42:08.994Z,35.71
2018-03-27T05:43:08.927Z,35.41
2018-03-27T05:44:08.971Z,35.09
2018-03-27T05:45:08.970Z,35.53
2018-03-27T05:46:08.915Z,35.39
2018-03-27T05:47:08.919Z,35.42
2018-03-27T05:48:08.953Z,35.55
2018-03-27T05:49:08.923Z,35.59
2018-03-27T05:50:08.931Z,35.39
2018-03-27T05:51:08.972Z,35.2
2018-03-27T05:52:08.760Z,35.27
2018-03-27T05:53:08.911Z,35.41
2018-03-27T05:54:08.915Z,35.44
2018-03-27T05:55:08.928Z,35.34
2018-03-27T05:56:09.065Z,35.36
2018-03-27T05:57:08.914Z,35.3
2018-03-27T05:58:08.917Z,35.18
2018-03-27T05:59:08.916Z,35.23
2018-03-27T06:00:08.900Z,35.13
2018-03-27T06:01:08.919Z,35.24
2018-03-27T06:02:08.911Z,35.17
2018-03-27T06:03:08.923Z,35.14
2018-03-27T06:04:08.913Z,35.11
2018-03-27T06:05:09.033Z,35.14
2018-03-27T06:06:08.896Z,35.17
2018-03-27T06:07:08.890Z,35.03
2018-03-27T06:08:08.914Z,35.06
2018-03-27T06:09:08.917Z,35.03
2018-03-27T06:10:08.895Z,35.01
2018-03-27T06:11:08.904Z,35.06
2018-03-27T06:12:08.903Z,35.01
2018-03-27T06:13:08.937Z,35.06
2018-03-27T06:14:08.954Z,35.04
2018-03-27T06:15:08.909Z,35.08
2018-03-27T06:16:08.949Z,34.94
2018-03-27T06:17:08.919Z,35.06
2018-03-27T06:18:08.904Z,35
2018-03-27T06:19:08.894Z,34.95
2018-03-27T06:20:08.925Z,34.96
2018-03-27T06:21:08.917Z,34.97
2018-03-27T06:22:08.902Z,34.97
2018-03-27T06:23:08.905Z,34.94
2018-03-27T06:24:08.897Z,35.01
2018-03-27T06:25:08.910Z,34.97
2018-03-27T06:26:08.915Z,35.05
2018-03-27T06:27:08.906Z,34.96
2018-03-27T06:28:08.900Z,34.96
2018-03-27T06:29:08.925Z,34.95
2018-03-27T06:30:08.895Z,34.92
2018-03-27T06:31:08.937Z,34.95
2018-03-27T06:32:08.892Z,34.9
2018-03-27T06:33:08.910Z,35
2018-03-27T06:34:08.894Z,35
2018-03-27T06:35:08.913Z,34.91
2018-03-27T06:36:08.895Z,34.92
2018-03-27T06:37:08.904Z,34.91
2018-03-27T06:38:08.910Z,34.92
2018-03-27T06:39:08.892Z,34.95
2018-03-27T06:40:08.892Z,34.92
2018-03-27T06:41:08.902Z,34.89
2018-03-27T06:42:09.096Z,34.92
2018-03-27T06:43:08.916Z,34.93
2018-03-27T06:44:08.888Z,34.94
2018-03-27T06:45:09.930Z,34.99
2018-03-27T06:46:08.924Z,34.85
2018-03-27T06:47:08.910Z,34.85
2018-03-27T06:48:08.948Z,34.91
2018-03-27T06:49:08.895Z,34.82
2018-03-27T06:50:08.898Z,34.9
2018-03-27T06:51:08.878Z,34.88
2018-03-27T06:52:08.887Z,34.83
2018-03-27T06:53:08.894Z,34.87
2018-03-27T06:54:08.910Z,34.87
2018-03-27T06:55:08.891Z,34.82
2018-03-27T06:56:08.899Z,34.82
2018-03-27T06:57:08.922Z,34.86
2018-03-27T06:58:08.917Z,34.82
2018-03-27T06:59:08.964Z,34.86
2018-03-27T07:00:08.907Z,34.81
2018-03-27T07:01:08.880Z,34.84
2018-03-27T07:02:08.910Z,34.85
2018-03-27T07:03:08.923Z,34.82
2018-03-27T07:04:08.872Z,34.85
2018-03-27T07:05:08.909Z,34.83
2018-03-27T07:06:08.939Z,34.82
2018-03-27T07:07:08.906Z,34.76
2018-03-27T07:08:08.932Z,34.8
2018-03-27T07:09:08.892Z,34.89
2018-03-27T07:10:08.931Z,34.77
2018-03-27T07:11:08.924Z,34.84
2018-03-27T07:12:08.917Z,34.82
2018-03-27T07:13:08.944Z,34.81
2018-03-27T07:14:08.928Z,34.86
2018-03-27T07:15:08.930Z,34.77
2018-03-27T07:16:08.974Z,34.78
2018-03-27T07:17:08.893Z,34.76
2018-03-27T07:18:08.943Z,34.75
2018-03-27T07:19:08.885Z,34.75
2018-03-27T07:20:08.981Z,34.78
2018-03-27T07:21:08.967Z,34.84
2018-03-27T07:22:08.922Z,34.73
2018-03-27T07:23:08.898Z,34.7
2018-03-27T07:24:08.899Z,34.75
2018-03-27T07:25:08.912Z,34.77
2018-03-27T07:26:08.882Z,34.74
2018-03-27T07:27:08.875Z,34.78
2018-03-27T07:28:08.887Z,34.74
2018-03-27T07:29:08.869Z,34.78
2018-03-27T07:30:08.922Z,34.77
2018-03-27T07:31:08.884Z,34.82
2018-03-27T07:32:08.918Z,35.19
2018-03-27T07:33:08.915Z,35.23
2018-03-27T07:34:08.942Z,34.94
2018-03-27T07:35:08.882Z,35.15
2018-03-27T07:36:08.872Z,35.55
2018-03-27T07:37:08.869Z,35.8
2018-03-27T07:38:08.907Z,35.96
2018-03-27T07:39:08.954Z,35.81
2018-03-27T07:40:08.946Z,35.7
2018-03-27T07:41:08.924Z,36.1
2018-03-27T07:42:08.897Z,36.04
2018-03-27T07:43:08.861Z,35.91
2018-03-27T07:44:08.909Z,36.15
2018-03-27T07:45:08.896Z,35.78
2018-03-27T07:46:08.874Z,35.94
2018-03-27T07:47:08.921Z,35.62
2018-03-27T07:48:08.870Z,35.68
2018-03-27T07:49:08.908Z,35.67
2018-03-27T07:50:08.903Z,35.35
2018-03-27T07:51:08.877Z,35.83
2018-03-27T07:52:08.895Z,35.54
2018-03-27T07:53:08.876Z,35.47
2018-03-27T07:54:08.885Z,35.46
2018-03-27T07:55:08.885Z,35.35
2018-03-27T07:56:08.870Z,36.05
2018-03-27T07:57:08.876Z,35.59
2018-03-27T07:58:08.877Z,35.29
2018-03-27T07:59:08.907Z,35.29
2018-03-27T08:00:08.870Z,34.98
2018-03-27T08:01:08.889Z,35.08
2018-03-27T08:02:08.879Z,35
2018-03-27T08:03:08.882Z,34.93
2018-03-27T08:04:08.868Z,34.91
2018-03-27T08:05:08.815Z,34.89
2018-03-27T08:06:08.913Z,34.85
2018-03-27T08:07:08.863Z,34.98
2018-03-27T08:08:08.878Z,34.95
2018-03-27T08:09:08.876Z,34.89
2018-03-27T08:10:08.864Z,34.94
2018-03-27T08:11:09.063Z,34.89
2018-03-27T08:12:08.912Z,34.96
2018-03-27T08:13:08.884Z,34.92
2018-03-27T08:14:08.848Z,34.87
2018-03-27T08:15:08.879Z,34.9
2018-03-27T08:16:08.872Z,34.86
2018-03-27T08:17:08.829Z,34.86
2018-03-27T08:18:08.914Z,34.9
2018-03-27T08:19:08.857Z,34.83
2018-03-27T08:20:08.890Z,34.82
2018-03-27T08:21:08.890Z,34.82
2018-03-27T08:22:08.871Z,34.89
2018-03-27T08:23:08.892Z,35.09
2018-03-27T08:24:09.140Z,35.39
2018-03-27T08:25:08.862Z,35.26
2018-03-27T08:26:08.868Z,35.27
2018-03-27T08:27:08.875Z,35.33
2018-03-27T08:28:08.894Z,35.31
2018-03-27T08:29:08.884Z,35.25
2018-03-27T08:30:08.867Z,35.35
2018-03-27T08:31:08.883Z,35.31
2018-03-27T08:32:08.870Z,35
2018-03-27T08:33:08.896Z,34.96
2018-03-27T08:34:08.867Z,35.02
2018-03-27T08:35:08.858Z,34.86
2018-03-27T08:36:08.854Z,34.76
2018-03-27T08:37:08.859Z,34.87
2018-03-27T08:38:08.852Z,34.82
2018-03-27T08:39:09.036Z,34.72
2018-03-27T08:40:08.894Z,34.75
2018-03-27T08:41:08.851Z,34.75
2018-03-27T08:42:09.579Z,35.08
2018-03-27T08:43:08.857Z,35.17
2018-03-27T08:44:08.856Z,35.23
2018-03-27T08:45:08.865Z,35.42
2018-03-27T08:46:12.241Z,35.46
2018-03-27T08:47:08.857Z,35.41
2018-03-27T08:48:08.972Z,35.33
2018-03-27T08:49:08.854Z,35.3
2018-03-27T08:50:08.905Z,35.41
2018-03-27T08:51:08.864Z,35.25
2018-03-27T08:52:12.346Z,35.55
2018-03-27T08:53:08.852Z,35.86
2018-03-27T08:54:08.986Z,35.3
2018-03-27T08:55:08.898Z,35.5
2018-03-27T08:56:08.973Z,34.86
2018-03-27T08:57:08.852Z,34.52
2018-03-27T08:58:08.877Z,34.65
2018-03-27T08:59:08.896Z,34.67
2018-03-27T09:00:08.854Z,34.52
2018-03-27T09:01:08.846Z,34.58
2018-03-27T09:02:08.852Z,34.65
2018-03-27T09:03:08.848Z,34.68
2018-03-27T09:04:08.849Z,34.64
2018-03-27T09:05:08.863Z,34.63
2018-03-27T09:06:08.838Z,34.66
2018-03-27T09:07:08.850Z,34.73
2018-03-27T09:08:08.834Z,34.78
2018-03-27T09:09:08.915Z,34.56
2018-03-27T09:10:08.845Z,34.62
2018-03-27T09:11:08.847Z,34.66
2018-03-27T09:12:08.898Z,34.6
2018-03-27T09:13:09.121Z,34.74
2018-03-27T09:14:08.853Z,34.67
2018-03-27T09:15:08.913Z,34.61
2018-03-27T09:16:08.992Z,34.68
2018-03-27T09:17:08.858Z,34.76
2018-03-27T09:18:08.852Z,34.62
2018-03-27T09:19:08.900Z,34.69
2018-03-27T09:20:08.853Z,34.61
2018-03-27T09:21:08.961Z,34.61
2018-03-27T09:22:08.951Z,34.67
2018-03-27T09:23:08.839Z,34.68
2018-03-27T09:24:08.882Z,34.61
2018-03-27T09:25:08.863Z,34.67
2018-03-27T09:26:08.850Z,34.65
2018-03-27T09:27:08.840Z,34.72
2018-03-27T09:28:08.861Z,34.85
2018-03-27T09:29:08.849Z,34.79
2018-03-27T09:30:08.837Z,34.82
2018-03-27T09:31:08.854Z,34.83
2018-03-27T09:32:08.855Z,34.84
2018-03-27T09:33:08.861Z,34.91
2018-03-27T09:34:08.846Z,34.9
2018-03-27T09:35:08.841Z,34.79
2018-03-27T09:36:08.845Z,34.85
2018-03-27T09:37:08.854Z,34.81
2018-03-27T09:38:08.848Z,34.78
2018-03-27T09:39:09.043Z,34.88
2018-03-27T09:40:08.840Z,34.8
2018-03-27T09:41:08.842Z,34.81
2018-03-27T09:42:08.840Z,34.82
2018-03-27T09:43:08.851Z,34.81
2018-03-27T09:44:08.840Z,34.88
2018-03-27T09:45:08.837Z,34.8
2018-03-27T09:46:08.838Z,34.85
2018-03-27T09:47:08.841Z,34.8
2018-03-27T09:48:08.907Z,34.89
2018-03-27T09:49:08.916Z,34.85
2018-03-27T09:50:08.841Z,34.8
2018-03-27T09:51:08.876Z,34.82
2018-03-27T09:52:08.851Z,34.84
2018-03-27T09:53:08.837Z,34.82
2018-03-27T09:54:08.868Z,34.75
2018-03-27T09:55:08.844Z,34.78
2018-03-27T09:56:08.837Z,34.81
2018-03-27T09:57:08.838Z,34.78
2018-03-27T09:58:08.835Z,34.74
2018-03-27T09:59:08.857Z,34.71
2018-03-27T10:00:08.849Z,34.76
2018-03-27T10:01:08.831Z,34.74
2018-03-27T10:02:08.834Z,34.73
2018-03-27T10:03:08.840Z,34.7
2018-03-27T10:04:08.843Z,34.78
2018-03-27T10:05:08.836Z,34.91
2018-03-27T10:06:08.843Z,34.83
2018-03-27T10:07:08.849Z,34.82
2018-03-27T10:08:08.831Z,34.93
2018-03-27T10:09:08.863Z,34.95
2018-03-27T10:10:08.842Z,34.91
2018-03-27T10:11:08.840Z,34.99
2018-03-27T10:12:08.866Z,35.07
2018-03-27T10:13:08.840Z,35.03
2018-03-27T10:14:08.849Z,35.08
2018-03-27T10:15:08.824Z,35.08
2018-03-27T10:16:08.826Z,35.06
2018-03-27T10:17:08.840Z,35.03
2018-03-27T10:18:08.833Z,34.88
2018-03-27T10:19:08.845Z,34.99
2018-03-27T10:20:08.966Z,34.89
2018-03-27T10:21:08.844Z,34.84
2018-03-27T10:22:08.888Z,34.87
2018-03-27T10:23:08.884Z,34.88
2018-03-27T10:24:08.845Z,34.91
2018-03-27T10:25:08.818Z,34.94
2018-03-27T10:26:08.923Z,34.98
2018-03-27T10:27:08.852Z,35.12
2018-03-27T10:28:08.825Z,35.02
2018-03-27T10:29:08.856Z,34.97
2018-03-27T10:30:08.816Z,35.11
2018-03-27T10:31:08.843Z,35.08
2018-03-27T10:32:08.846Z,35.12
2018-03-27T10:33:08.900Z,35.21
2018-03-27T10:34:08.845Z,35.17
2018-03-27T10:35:08.821Z,35.14
2018-03-27T10:36:08.829Z,35.27
2018-03-27T10:37:08.833Z,35.16
2018-03-27T10:38:08.824Z,35.15
2018-03-27T10:39:08.832Z,35.19
2018-03-27T10:40:08.841Z,35.12
2018-03-27T10:41:08.815Z,35.17
2018-03-27T10:42:08.857Z,35.22
2018-03-27T10:43:08.828Z,35.34
2018-03-27T10:44:08.848Z,35.33
2018-03-27T10:45:08.833Z,35.36
2018-03-27T10:46:08.849Z,35.28
2018-03-27T10:47:08.822Z,35.54
2018-03-27T10:48:08.819Z,35.72
2018-03-27T10:49:08.880Z,35.92
2018-03-27T10:50:11.021Z,35.83
2018-03-27T10:51:08.859Z,35.58
2018-03-27T10:51:41.248Z,36.89
2018-03-27T10:52:41.248Z,35.43
2018-03-27T10:53:41.224Z,35.47
2018-03-27T10:54:41.258Z,35.1
2018-03-27T10:55:41.295Z,36.97
2018-03-27T10:56:41.221Z,35.77
2018-03-27T10:57:41.226Z,34.9
2018-03-27T10:58:41.225Z,34.94
2018-03-27T10:59:41.276Z,34.76
2018-03-27T11:00:41.212Z,34.72
2018-03-27T11:01:41.220Z,34.78
2018-03-27T11:02:41.236Z,34.74
2018-03-27T11:03:41.235Z,34.74
2018-03-27T11:04:41.333Z,34.72
2018-03-27T11:05:41.241Z,34.64
2018-03-27T11:06:41.246Z,34.67
2018-03-27T11:07:41.261Z,34.48
2018-03-27T11:08:41.265Z,34.45
2018-03-27T11:09:41.272Z,34.57
2018-03-27T11:10:41.256Z,34.39
2018-03-27T11:11:41.253Z,34.37
2018-03-27T11:12:41.201Z,34.44
2018-03-27T11:13:41.417Z,34.58
2018-03-27T11:14:41.283Z,34.39
2018-03-27T11:15:41.240Z,34.24
2018-03-27T11:16:41.262Z,34.2
2018-03-27T11:17:41.225Z,34.21
2018-03-27T11:18:41.230Z,34.27
2018-03-27T11:27:32.420Z,34.11
2018-03-27T11:28:13.195Z,34.13
2018-03-27T11:29:13.256Z,34.09
2018-03-27T11:30:13.156Z,34.12
2018-03-27T11:31:13.169Z,34.14
2018-03-27T11:32:13.190Z,34.12
2018-03-27T11:33:13.164Z,34.14
2018-03-27T11:34:13.168Z,34.11
2018-03-27T11:35:13.139Z,34.1
2018-03-27T11:36:13.134Z,34.14
2018-03-27T11:37:13.179Z,34.11
2018-03-27T11:38:13.162Z,34.1
2018-03-27T11:39:13.172Z,34.12
2018-03-27T11:40:13.147Z,34.07
2018-03-27T11:41:13.145Z,34.1
2018-03-27T11:42:13.135Z,34.08
2018-03-27T11:43:13.184Z,34.08
2018-03-27T11:44:13.146Z,34.05
2018-03-27T11:45:13.155Z,33.96
2018-03-27T11:46:13.167Z,34.05
2018-03-27T11:47:13.139Z,33.96
2018-03-27T11:48:13.131Z,34.04
2018-03-27T11:49:13.164Z,33.96
2018-03-27T11:50:13.151Z,33.92
2018-03-27T11:51:13.153Z,33.96
2018-03-27T11:52:13.196Z,33.95
2018-03-27T11:53:13.134Z,33.88
2018-03-27T11:54:13.129Z,33.93
2018-03-27T11:55:13.184Z,33.9
2018-03-27T11:56:13.166Z,33.84
2018-03-27T11:57:13.156Z,33.92
2018-03-27T11:58:13.196Z,33.86
2018-03-27T11:59:13.135Z,33.83
2018-03-27T12:00:13.147Z,33.81
2018-03-27T12:01:13.163Z,33.81
2018-03-27T12:02:13.157Z,33.84
2018-03-27T12:03:13.156Z,33.79
2018-03-27T12:04:13.134Z,33.81
2018-03-27T12:05:13.417Z,33.79
2018-03-27T12:06:13.130Z,33.83
2018-03-27T12:07:13.146Z,33.87
2018-03-27T12:08:13.145Z,33.78
2018-03-27T12:09:13.166Z,33.74
2018-03-27T12:10:13.185Z,33.77
2018-03-27T12:11:13.153Z,33.77
2018-03-27T12:12:13.122Z,33.7
2018-03-27T12:13:13.187Z,33.77
2018-03-27T12:14:13.152Z,33.76
2018-03-27T12:15:13.247Z,33.77
2018-03-27T12:16:13.159Z,33.76
2018-03-27T12:17:13.120Z,33.73
2018-03-27T12:18:13.123Z,34
2018-03-27T12:19:13.157Z,34.85
2018-03-27T12:20:13.158Z,33.86
2018-03-27T12:21:13.150Z,33.64
2018-03-27T12:22:13.175Z,33.66
2018-03-27T12:23:13.121Z,33.64
2018-03-27T12:24:13.133Z,33.61
2018-03-27T12:25:13.164Z,33.63
2018-03-27T12:26:13.159Z,33.59
2018-03-27T12:27:13.144Z,33.57
2018-03-27T12:28:13.179Z,33.61
2018-03-27T12:29:13.141Z,33.53
2018-03-27T12:30:13.126Z,33.55
2018-03-27T12:31:13.414Z,33.55
2018-03-27T12:32:13.163Z,33.55
2018-03-27T12:33:13.153Z,35.46
2018-03-27T12:34:13.145Z,33.59
2018-03-27T12:35:13.108Z,33.56
2018-03-27T12:36:13.145Z,33.49
2018-03-27T12:37:13.140Z,33.43
2018-03-27T12:38:13.153Z,33.56
2018-03-27T12:39:13.130Z,33.52
2018-03-27T12:40:13.145Z,33.53
2018-03-27T12:41:13.112Z,33.59
2018-03-27T12:42:13.198Z,33.6
2018-03-27T12:43:13.140Z,33.71
2018-03-27T12:44:13.139Z,33.72
2018-03-27T12:45:13.146Z,33.63
2018-03-27T12:46:13.160Z,33.63
2018-03-27T12:47:13.109Z,33.67
2018-03-27T12:48:13.117Z,33.71
2018-03-27T12:49:13.157Z,33.69
2018-03-27T12:50:13.134Z,33.78
2018-03-27T12:51:13.146Z,33.83
2018-03-27T12:52:13.124Z,33.79
2018-03-27T12:53:13.221Z,33.77
2018-03-27T12:54:13.128Z,33.75
2018-03-27T12:55:13.134Z,33.78
2018-03-27T12:56:13.131Z,33.76
2018-03-27T12:57:13.130Z,33.72
2018-03-27T12:58:13.142Z,33.75
2018-03-27T12:59:13.165Z,33.78
2018-03-27T13:00:13.125Z,33.81
2018-03-27T13:01:13.147Z,33.75
2018-03-27T13:02:13.128Z,33.7